Time;durP1;ratioP1;P1;durP2;ratioP2;P2;SDS_P1;SDS_P2;PMS_P1;PMS_P2;Temp;Humidity;BMP_temperature;BMP_pressure;BME280_temperature;BME280_humidity;BME280_pressure;Samples;Min_cycle;Max_cycle;Signal;HPM_P1;HPM_P2
2023/03/31 00:00:56;;;;;;;3.45;1.30;;;;;;;9.85;89.15;100311.38;5011526;28;20025;-79
2023/03/31 00:03:22;;;;;;;5.03;1.30;;;;;;;9.86;89.03;100305.28;5011080;28;20491;-79
2023/03/31 00:05:52;;;;;;;5.97;1.30;;;;;;;9.88;89.18;100298.28;5010487;28;20030;-79
2023/03/31 00:08:18;;;;;;;4.35;1.05;;;;;;;9.88;89.00;100295.69;5010824;28;20029;-79
2023/03/31 00:10:45;;;;;;;5.43;1.23;;;;;;;9.90;89.16;100298.25;5010210;28;20029;-79
2023/03/31 00:13:11;;;;;;;4.18;1.10;;;;;;;9.89;89.61;100279.19;5012025;28;20028;-79
2023/03/31 00:15:36;;;;;;;3.78;1.20;;;;;;;9.90;89.75;100280.91;5011805;28;20395;-79
2023/03/31 00:18:02;;;;;;;3.50;1.10;;;;;;;9.91;89.83;100276.53;5010751;28;20026;-79
2023/03/31 00:20:28;;;;;;;3.58;1.02;;;;;;;9.91;89.94;100269.59;5012329;28;20029;-78
2023/03/31 00:22:53;;;;;;;4.53;1.20;;;;;;;9.90;90.33;100257.50;5013088;28;20100;-78
2023/03/31 00:25:19;;;;;;;5.93;1.35;;;;;;;9.90;90.36;100248.88;5013244;28;20068;-78
2023/03/31 00:27:45;;;;;;;4.20;1.13;;;;;;;9.87;90.60;100242.88;5011499;28;20092;-78
2023/03/31 00:30:12;;;;;;;4.18;1.35;;;;;;;9.84;90.88;100235.19;5009948;28;20026;-78
2023/03/31 00:32:38;;;;;;;2.95;1.10;;;;;;;9.86;90.45;100223.00;5013226;28;20022;-78
2023/03/31 00:35:04;;;;;;;3.42;1.23;;;;;;;9.84;90.79;100219.59;5011685;28;20044;-78
2023/03/31 00:37:29;;;;;;;2.90;1.10;;;;;;;9.83;91.43;100217.03;5013344;28;20064;-78
2023/03/31 00:39:55;;;;;;;3.05;1.00;;;;;;;9.81;91.47;100214.50;5012298;28;20029;-78
2023/03/31 00:42:21;;;;;;;4.45;1.30;;;;;;;9.80;91.69;100207.59;5013153;28;20044;-78
2023/03/31 00:45:18;;;;;;;7.90;2.15;;;;;;;9.78;91.61;100200.75;5011709;28;20026;-78
2023/03/31 00:47:50;;;;;;;8.43;2.42;;;;;;;9.74;91.90;100202.59;5012145;28;20033;-78
2023/03/31 00:50:28;;;;;;;3.72;1.55;;;;;;;9.71;92.14;100184.53;5011054;28;20042;-78
2023/03/31 00:53:06;;;;;;;3.38;1.38;;;;;;;9.70;92.37;100182.84;5013310;28;20033;-78
2023/03/31 00:55:40;;;;;;;4.97;1.20;;;;;;;9.70;92.20;100180.25;5012294;28;20461;-78
2023/03/31 00:58:07;;;;;;;5.03;1.45;;;;;;;9.68;92.37;100172.47;5011968;28;20056;-78
2023/03/31 01:00:33;;;;;;;5.45;1.10;;;;;;;9.67;92.28;100172.53;5011260;28;20030;-78
2023/03/31 01:03:02;;;;;;;4.88;1.00;;;;;;;9.66;92.43;100163.06;5006489;28;20088;-78
2023/03/31 01:05:35;;;;;;;4.68;1.27;;;;;;;9.65;92.30;100171.75;5011400;28;20038;-78
2023/03/31 01:08:04;;;;;;;4.00;1.00;;;;;;;9.66;92.15;100168.25;5011664;28;20710;-78
2023/03/31 01:10:40;;;;;;;6.90;1.10;;;;;;;9.64;92.29;100164.84;5009601;28;20029;-78
2023/03/31 01:13:06;;;;;;;4.63;1.40;;;;;;;9.64;92.64;100157.06;5009456;28;20543;-78
2023/03/31 01:15:32;;;;;;;6.32;1.75;;;;;;;9.65;92.11;100156.16;5010485;28;20166;-78
2023/03/31 01:17:57;;;;;;;5.25;1.30;;;;;;;9.65;92.26;100150.97;5012601;28;20166;-78
2023/03/31 01:20:35;;;;;;;5.32;1.20;;;;;;;9.65;92.23;100140.56;5010397;28;20022;-78
2023/03/31 01:23:18;;;;;;;4.25;1.05;;;;;;;9.66;92.19;100137.09;5009888;28;20080;-78
2023/03/31 01:26:26;;;;;;;3.75;1.00;;;;;;;9.66;92.01;100129.28;5011963;28;20041;-78
2023/03/31 01:29:07;;;;;;;4.28;1.00;;;;;;;9.67;92.03;100118.00;5007986;28;20035;-78
2023/03/31 01:31:49;;;;;;;4.28;1.10;;;;;;;9.70;91.73;100112.72;5009577;28;20033;-78
2023/03/31 01:34:40;;;;;;;4.22;1.10;;;;;;;9.69;92.30;100117.03;5008854;28;20056;-78
2023/03/31 01:37:43;;;;;;;5.03;1.20;;;;;;;9.67;92.64;100107.63;5012242;28;20037;-78
2023/03/31 01:40:27;;;;;;;4.13;1.00;;;;;;;9.68;92.02;100104.13;5011508;28;20079;-78
2023/03/31 01:43:20;;;;;;;3.20;1.00;;;;;;;9.68;92.17;100098.91;5010123;28;20075;-78
2023/03/31 01:45:58;;;;;;;4.47;1.20;;;;;;;9.67;92.62;100102.41;5009872;28;20029;-78
2023/03/31 01:49:01;;;;;;;4.13;1.02;;;;;;;9.66;92.43;100093.75;5009171;28;20053;-78
2023/03/31 01:52:04;;;;;;;5.03;1.00;;;;;;;9.68;91.95;100083.34;4990906;28;20046;-78
2023/03/31 01:54:44;;;;;;;6.72;1.17;;;;;;;9.67;92.37;100086.84;4999198;28;20049;-78
2023/03/31 01:57:23;;;;;;;4.43;0.98;;;;;;;9.68;92.72;100072.94;5010290;28;20021;-79
2023/03/31 01:59:56;;;;;;;6.82;1.10;;;;;;;9.67;93.49;100060.88;5006757;28;20114;-78
2023/03/31 02:02:28;;;;;;;5.05;1.05;;;;;;;9.68;92.68;100065.16;5004317;28;20409;-79
2023/03/31 02:05:06;;;;;;;3.85;1.48;;;;;;;9.73;91.87;100055.47;5010123;28;20121;-78
2023/03/31 02:07:42;;;;;;;5.18;1.13;;;;;;;9.75;91.69;100043.25;5006705;28;20063;-78
2023/03/31 02:10:11;;;;;;;3.55;1.08;;;;;;;9.74;92.36;100035.53;5008700;28;20026;-79
2023/03/31 02:12:39;;;;;;;9.00;1.40;;;;;;;9.76;92.32;100029.34;5010808;28;20029;-78
2023/03/31 02:15:09;;;;;;;4.90;1.02;;;;;;;9.76;92.71;100024.16;5008060;28;20034;-78
2023/03/31 02:17:39;;;;;;;5.15;1.30;;;;;;;9.76;92.79;100015.53;5007896;28;20033;-78
2023/03/31 02:20:11;;;;;;;7.40;1.42;;;;;;;9.74;93.58;100004.34;5009835;28;20029;-78
2023/03/31 02:22:39;;;;;;;5.25;1.20;;;;;;;9.73;93.61;100000.91;5008587;28;20116;-78
2023/03/31 02:25:09;;;;;;;6.53;1.05;;;;;;;9.73;93.91;99987.94;5009622;28;20025;-78
2023/03/31 02:27:38;;;;;;;5.25;1.13;;;;;;;9.71;94.16;99977.59;5009626;28;20109;-78
2023/03/31 02:30:05;;;;;;;4.65;1.20;;;;;;;9.70;94.36;99968.09;5010651;28;20465;-78
2023/03/31 02:32:45;;;;;;;5.30;1.20;;;;;;;9.70;94.52;99962.06;5009747;28;20048;-78
2023/03/31 02:35:20;;;;;;;5.68;1.38;;;;;;;9.69;94.99;99950.81;5011191;28;20037;-78
2023/03/31 02:37:48;;;;;;;5.50;1.20;;;;;;;9.69;95.18;99939.59;5009171;28;20361;-78
2023/03/31 02:40:26;;;;;;;5.95;1.30;;;;;;;9.68;94.95;99940.50;5010140;28;20113;-78
2023/03/31 02:42:52;;;;;;;6.60;1.30;;;;;;;9.69;94.61;99934.41;5007829;28;20389;-78
2023/03/31 02:45:41;;;;;;;8.10;1.67;;;;;;;9.67;94.67;99929.25;5010005;28;20064;-78
2023/03/31 02:48:12;;;;;;;6.70;1.35;;;;;;;9.67;94.94;99915.44;5009068;28;20088;-78
2023/03/31 02:50:46;;;;;;;6.45;1.20;;;;;;;9.67;95.08;99905.03;5010640;28;20084;-78
2023/03/31 02:53:35;;;;;;;7.10;1.67;;;;;;;9.66;94.99;99891.19;5009452;28;20037;-78
2023/03/31 02:56:26;;;;;;;5.40;1.48;;;;;;;9.65;95.15;99892.09;5006736;28;20034;-78
2023/03/31 02:59:15;;;;;;;6.22;1.20;;;;;;;9.67;95.38;99889.44;5008398;28;20469;-78
2023/03/31 03:01:54;;;;;;;7.78;1.40;;;;;;;9.64;95.95;99868.78;5005140;28;20072;-78
2023/03/31 03:04:37;;;;;;;5.40;1.50;;;;;;;9.63;96.32;99867.09;5009130;28;20038;-78
2023/03/31 03:07:12;;;;;;;5.18;1.15;;;;;;;9.63;95.69;99854.09;5009206;28;20162;-78
2023/03/31 03:10:01;;;;;;;6.13;1.27;;;;;;;9.62;95.36;99849.81;5007717;28;20030;-78
2023/03/31 03:12:39;;;;;;;5.68;1.10;;;;;;;9.59;95.90;99842.13;5008411;28;20461;-78
2023/03/31 03:15:15;;;;;;;5.40;1.30;;;;;;;9.59;95.88;99839.53;5009080;28;20026;-78
2023/03/31 03:17:45;;;;;;;5.70;1.17;;;;;;;9.59;95.68;99831.75;5008039;28;20026;-78
2023/03/31 03:20:12;;;;;;;5.15;1.10;;;;;;;9.56;96.17;99820.56;5008942;28;20036;-78
2023/03/31 03:22:39;;;;;;;7.28;1.08;;;;;;;9.56;96.19;99823.16;5008397;28;20026;-78
2023/03/31 03:25:08;;;;;;;4.93;1.40;;;;;;;9.56;96.37;99820.56;5010383;28;20030;-78
2023/03/31 03:27:34;;;;;;;3.97;1.08;;;;;;;9.56;95.97;99817.97;5010563;28;20050;-78
2023/03/31 03:30:03;;;;;;;8.27;1.60;;;;;;;9.57;96.37;99808.44;5013051;28;20468;-78
2023/03/31 03:32:29;;;;;;;8.30;1.13;;;;;;;9.59;96.04;99823.97;5010447;28;20021;-78
2023/03/31 03:34:54;;;;;;;5.38;1.50;;;;;;;9.59;95.76;99818.75;5012169;28;20080;-78
2023/03/31 03:37:20;;;;;;;7.50;1.45;;;;;;;9.59;95.69;99813.56;5013741;28;20049;-78
2023/03/31 03:39:45;;;;;;;7.20;1.35;;;;;;;9.59;96.11;99798.00;5014336;28;20416;-78
2023/03/31 03:42:10;;;;;;;8.90;1.33;;;;;;;9.57;96.25;99805.84;5012614;28;20025;-77
2023/03/31 03:44:36;;;;;;;5.55;1.30;;;;;;;9.59;95.85;99805.78;5012514;28;20033;-78
2023/03/31 03:47:01;;;;;;;8.02;1.30;;;;;;;9.58;95.79;99794.56;5012751;28;20469;-77
2023/03/31 03:49:26;;;;;;;5.65;1.17;;;;;;;9.58;95.80;99784.19;5012469;28;20167;-78
2023/03/31 03:51:51;;;;;;;4.05;1.10;;;;;;;9.57;95.75;99772.94;5014072;28;20103;-78
2023/03/31 03:54:17;;;;;;;6.53;1.40;;;;;;;9.54;96.42;99775.66;5011796;28;20029;-78
2023/03/31 03:56:42;;;;;;;7.30;1.27;;;;;;;9.52;96.33;99772.28;5013304;28;20018;-77
2023/03/31 03:59:10;;;;;;;6.47;1.30;;;;;;;9.52;96.30;99761.91;5010337;28;20022;-77
2023/03/31 04:01:36;;;;;;;5.88;1.15;;;;;;;9.51;96.51;99739.44;5012635;28;20575;-77
2023/03/31 04:04:01;;;;;;;9.43;1.80;;;;;;;9.51;96.40;99730.78;5013868;28;20034;-78
2023/03/31 04:06:26;;;;;;;6.47;1.33;;;;;;;9.48;96.71;99729.16;5012807;28;20037;-78
2023/03/31 04:08:51;;;;;;;6.50;1.30;;;;;;;9.48;96.47;99723.16;5009480;28;20053;-77
2023/03/31 04:11:18;;;;;;;6.40;1.15;;;;;;;9.47;96.15;99719.69;5014041;28;20461;-78
2023/03/31 04:13:44;;;;;;;7.93;1.38;;;;;;;9.44;96.88;99712.00;5013220;28;20026;-78
2023/03/31 04:16:09;;;;;;;4.68;1.13;;;;;;;9.44;96.71;99719.78;5010881;28;20033;-78
2023/03/31 04:18:36;;;;;;;5.20;1.10;;;;;;;9.44;96.54;99717.19;5011715;28;20018;-78
2023/03/31 04:21:04;;;;;;;7.20;1.27;;;;;;;9.44;96.17;99704.22;5012248;28;20128;-78
2023/03/31 04:23:37;;;;;;;7.53;1.15;;;;;;;9.41;96.47;99692.22;5009532;28;20496;-78
2023/03/31 04:26:07;;;;;;;7.53;1.10;;;;;;;9.41;96.80;99681.84;5024260;28;20056;-78
2023/03/31 04:28:33;;;;;;;5.10;1.10;;;;;;;9.41;97.03;99673.19;5010975;28;20018;-78
2023/03/31 04:31:05;;;;;;;5.47;1.20;;;;;;;9.40;97.20;99663.72;5010494;28;20029;-78
2023/03/31 04:33:32;;;;;;;6.45;1.20;;;;;;;9.39;96.68;99667.25;5012878;28;20439;-78
2023/03/31 04:36:05;;;;;;;3.33;1.00;;;;;;;9.37;97.36;99658.66;5006266;28;20380;-78
2023/03/31 04:38:32;;;;;;;6.78;0.93;;;;;;;9.36;97.21;99647.41;5010182;28;20160;-78
2023/03/31 04:40:58;;;;;;;4.53;0.75;;;;;;;9.35;97.49;99644.91;5008649;28;20112;-78
2023/03/31 04:43:23;;;;;;;6.55;1.08;;;;;;;9.35;97.67;99639.72;5011356;28;20469;-78
2023/03/31 04:45:48;;;;;;;5.38;0.98;;;;;;;9.34;97.84;99630.22;5009625;28;20049;-78
2023/03/31 04:48:14;;;;;;;5.70;1.00;;;;;;;9.33;97.62;99623.34;5011144;28;20025;-78
2023/03/31 04:50:39;;;;;;;6.40;1.10;;;;;;;9.31;98.12;99610.41;5009763;28;20424;-78
2023/03/31 04:53:04;;;;;;;5.28;0.98;;;;;;;9.32;98.11;99609.50;5013139;28;20517;-78
2023/03/31 04:55:30;;;;;;;4.97;0.93;;;;;;;9.32;98.15;99608.69;5013019;28;20065;-78
2023/03/31 04:57:55;;;;;;;5.32;1.30;;;;;;;9.31;98.20;99596.59;5012273;28;20091;-78
2023/03/31 05:00:21;;;;;;;3.63;0.90;;;;;;;9.31;98.19;99594.00;5011012;28;20854;-78
2023/03/31 05:02:46;;;;;;;2.55;1.00;;;;;;;9.31;98.03;99594.00;5009239;28;20113;-78
2023/03/31 05:05:12;;;;;;;2.88;0.90;;;;;;;9.31;98.19;99583.63;5012755;28;20516;-78
2023/03/31 05:07:38;;;;;;;6.75;0.90;;;;;;;9.30;98.14;99584.53;5011112;28;20075;-78
2023/03/31 05:10:04;;;;;;;7.30;1.30;;;;;;;9.30;98.14;99581.94;5011316;28;20038;-78
2023/03/31 05:12:34;;;;;;;4.95;1.25;;;;;;;9.27;98.27;99575.13;5008631;28;20068;-78
2023/03/31 05:14:59;;;;;;;7.43;1.10;;;;;;;9.29;97.46;99577.66;5007580;28;20526;-77
2023/03/31 05:17:24;;;;;;;4.75;0.95;;;;;;;9.28;97.49;99576.81;5010909;28;20030;-78
2023/03/31 05:19:50;;;;;;;3.35;0.93;;;;;;;9.28;97.52;99582.00;5012170;28;20026;-78
2023/03/31 05:22:19;;;;;;;4.15;1.23;;;;;;;9.29;96.79;99567.28;5010472;28;20076;-78
2023/03/31 05:24:44;;;;;;;4.47;1.30;;;;;;;9.28;96.95;99561.25;5009067;28;20084;-78
2023/03/31 05:27:10;;;;;;;6.88;1.00;;;;;;;9.29;96.77;99551.69;5009996;28;20057;-77
2023/03/31 05:29:35;;;;;;;6.10;1.20;;;;;;;9.25;96.67;99541.44;5008376;28;20033;-78
2023/03/31 05:32:00;;;;;;;3.03;0.90;;;;;;;9.27;96.25;99541.41;5008465;28;20022;-78
2023/03/31 05:34:25;;;;;;;2.70;0.80;;;;;;;9.28;95.80;99543.09;5009072;28;20408;-78
2023/03/31 05:36:52;;;;;;;5.20;0.90;;;;;;;9.24;96.36;99539.75;5008642;28;20030;-78
2023/03/31 05:39:18;;;;;;;3.95;1.10;;;;;;;9.26;95.68;99530.16;5008396;28;20159;-78
2023/03/31 05:41:43;;;;;;;5.25;1.38;;;;;;;9.25;96.08;99525.03;5008624;28;20101;-78
2023/03/31 05:44:08;;;;;;;3.45;1.05;;;;;;;9.26;95.79;99527.56;5008471;28;20029;-78
2023/03/31 05:46:34;;;;;;;6.40;1.05;;;;;;;9.27;95.50;99518.88;5006331;28;20061;-77
2023/03/31 05:48:59;;;;;;;2.92;1.00;;;;;;;9.30;95.45;99509.28;5007116;28;20028;-77
2023/03/31 05:51:24;;;;;;;4.75;1.00;;;;;;;9.27;95.55;99503.31;5011612;28;20061;-78
2023/03/31 05:53:50;;;;;;;3.38;0.85;;;;;;;9.27;95.14;99507.66;5011159;28;20037;-78
2023/03/31 05:56:15;;;;;;;5.15;1.00;;;;;;;9.27;95.32;99518.03;5008866;28;20539;-78
2023/03/31 05:58:40;;;;;;;4.68;0.85;;;;;;;9.27;95.39;99512.84;5006897;28;20028;-78
2023/03/31 06:01:11;;;;;;;4.22;0.80;;;;;;;9.29;95.09;99515.38;5008336;28;20052;-78
2023/03/31 06:03:42;;;;;;;3.00;0.93;;;;;;;9.29;95.38;99505.00;5009232;28;20022;-78
2023/03/31 06:06:08;;;;;;;4.88;0.90;;;;;;;9.30;95.57;99504.94;5010590;28;20029;-78
2023/03/31 06:08:35;;;;;;;2.47;0.70;;;;;;;9.32;95.20;99494.47;5009304;28;20026;-78
2023/03/31 06:11:04;;;;;;;5.30;1.15;;;;;;;9.30;95.71;99504.09;5010534;28;20061;-78
2023/03/31 06:13:29;;;;;;;3.88;0.90;;;;;;;9.28;96.10;99498.97;5009552;28;20025;-77
2023/03/31 06:15:56;;;;;;;4.47;0.90;;;;;;;9.26;96.25;99491.22;5006277;28;20069;-78
2023/03/31 06:18:22;;;;;;;4.90;0.95;;;;;;;9.27;96.37;99492.09;5007174;28;20037;-78
2023/03/31 06:20:47;;;;;;;3.22;1.00;;;;;;;9.26;96.41;99490.41;5011292;28;20021;-78
2023/03/31 06:23:13;;;;;;;4.13;1.42;;;;;;;9.26;96.52;99496.41;5009635;28;20042;-77
2023/03/31 06:25:38;;;;;;;2.60;1.15;;;;;;;9.25;96.69;99488.72;5006197;28;20493;-78
2023/03/31 06:28:05;;;;;;;6.65;1.30;;;;;;;9.23;97.04;99478.38;5005656;28;20030;-78
2023/03/31 06:30:30;;;;;;;4.70;1.25;;;;;;;9.23;97.55;99488.75;5005900;28;20037;-78
2023/03/31 06:32:56;;;;;;;4.90;1.00;;;;;;;9.25;97.99;99468.78;5008589;28;20381;-78
2023/03/31 06:35:21;;;;;;;2.88;0.80;;;;;;;9.24;97.74;99463.66;5009349;28;20349;-78
2023/03/31 06:37:46;;;;;;;3.83;0.88;;;;;;;9.23;97.43;99460.22;5009375;28;20064;-78
2023/03/31 06:40:12;;;;;;;7.15;1.08;;;;;;;9.24;97.16;99448.09;5005792;28;20473;-78
2023/03/31 06:42:37;;;;;;;5.40;1.00;;;;;;;9.26;97.34;99460.09;5007347;28;20037;-78
2023/03/31 06:45:02;;;;;;;3.42;0.95;;;;;;;9.29;97.00;99442.69;5008292;28;20030;-78
2023/03/31 06:47:27;;;;;;;7.18;1.40;;;;;;;9.29;97.04;99427.13;5008501;28;20033;-78
2023/03/31 06:49:53;;;;;;;7.32;1.38;;;;;;;9.29;97.42;99422.81;5005549;28;20032;-78
2023/03/31 06:52:18;;;;;;;4.25;1.00;;;;;;;9.31;97.04;99410.56;5008403;28;20038;-78
2023/03/31 06:54:43;;;;;;;4.53;1.02;;;;;;;9.33;96.99;99441.66;5007325;28;20029;-78
2023/03/31 06:57:08;;;;;;;6.25;1.38;;;;;;;9.34;97.11;99451.97;5006764;28;20397;-78
2023/03/31 06:59:34;;;;;;;4.55;1.00;;;;;;;9.35;97.88;99443.28;5004097;28;20030;-78
2023/03/31 07:01:59;;;;;;;4.38;1.30;;;;;;;9.37;97.88;99451.84;5010907;28;20037;-78
2023/03/31 07:04:24;;;;;;;3.13;1.05;;;;;;;9.39;97.56;99478.59;5011614;28;20018;-78
2023/03/31 07:06:50;;;;;;;7.53;2.53;;;;;;;9.36;98.02;99450.16;5013585;28;20424;-78
2023/03/31 07:09:15;;;;;;;5.35;1.67;;;;;;;9.35;98.17;99448.47;5009079;28;20106;-78
2023/03/31 07:11:40;;;;;;;5.22;1.30;;;;;;;9.37;97.56;99456.22;5012360;28;20644;-78
2023/03/31 07:14:06;;;;;;;4.60;1.40;;;;;;;9.39;97.62;99444.00;5009430;28;20030;-78
2023/03/31 07:16:31;;;;;;;5.28;1.45;;;;;;;9.37;98.13;99431.09;5004699;28;20045;-78
2023/03/31 07:18:58;;;;;;;3.42;0.90;;;;;;;9.39;98.39;99433.63;5010136;28;20481;-78
2023/03/31 07:21:24;;;;;;;5.47;1.23;;;;;;;9.41;98.57;99442.16;5008494;28;20081;-78
2023/03/31 07:23:49;;;;;;;5.65;1.10;;;;;;;9.40;98.47;99441.34;5010810;28;20033;-78
2023/03/31 07:26:14;;;;;;;7.75;1.00;;;;;;;9.42;98.22;99449.03;5008492;28;20397;-78
2023/03/31 07:28:40;;;;;;;5.53;1.20;;;;;;;9.46;98.10;99440.22;5011090;28;20061;-78
2023/03/31 07:31:13;;;;;;;4.10;1.15;;;;;;;9.50;97.93;99428.81;5009632;28;20046;-78
2023/03/31 07:33:38;;;;;;;4.85;1.35;;;;;;;9.57;97.44;99427.59;5009316;28;20034;-78
2023/03/31 07:36:05;;;;;;;6.20;1.17;;;;;;;9.62;97.36;99423.97;5006360;28;20176;-78
2023/03/31 07:38:30;;;;;;;8.20;1.77;;;;;;;9.64;97.67;99422.16;5008449;28;20117;-78
2023/03/31 07:40:55;;;;;;;5.70;1.33;;;;;;;9.65;97.37;99413.44;5008209;28;20041;-78
2023/03/31 07:43:21;;;;;;;5.65;1.30;;;;;;;9.65;97.71;99411.66;5008756;28;20491;-78
2023/03/31 07:45:46;;;;;;;7.63;1.50;;;;;;;9.66;97.86;99415.97;5009503;28;20045;-78
2023/03/31 07:48:11;;;;;;;8.98;1.60;;;;;;;9.67;98.03;99406.44;5007398;28;20033;-78
2023/03/31 07:50:37;;;;;;;3.85;1.13;;;;;;;9.69;96.32;99400.25;5009218;28;20054;-78
2023/03/31 07:53:02;;;;;;;7.05;1.20;;;;;;;9.72;95.78;99404.47;5009784;28;20033;-78
2023/03/31 07:55:28;;;;;;;5.22;1.30;;;;;;;9.78;95.90;99404.19;5012580;28;20064;-78
2023/03/31 07:57:53;;;;;;;4.53;1.10;;;;;;;9.81;95.63;99400.63;5009793;28;20200;-77
2023/03/31 08:00:19;;;;;;;4.43;1.23;;;;;;;9.85;95.36;99404.72;5012296;28;20060;-78
2023/03/31 08:02:44;;;;;;;4.25;1.00;;;;;;;9.90;95.60;99399.34;5009546;28;20362;-78
2023/03/31 08:05:11;;;;;;;5.47;0.90;;;;;;;9.94;94.91;99400.88;5010077;28;20030;-78
2023/03/31 08:07:39;;;;;;;5.85;1.17;;;;;;;9.99;94.92;99391.13;5008746;28;20820;-78
2023/03/31 08:10:07;;;;;;;5.97;1.30;;;;;;;10.06;95.19;99387.34;5007648;28;20034;-78
2023/03/31 08:12:32;;;;;;;7.55;1.60;;;;;;;10.12;95.00;99386.19;5008984;28;20088;-78
2023/03/31 08:14:58;;;;;;;5.95;1.45;;;;;;;10.19;94.70;99390.16;5009806;28;20496;-78
2023/03/31 08:17:23;;;;;;;7.35;1.70;;;;;;;10.25;95.05;99382.09;5003255;28;20060;-77
2023/03/31 08:19:50;;;;;;;6.60;2.03;;;;;;;10.31;94.85;99392.19;5003776;28;20041;-77
2023/03/31 08:22:15;;;;;;;7.18;2.17;;;;;;;10.33;95.76;99387.75;5006937;28;20025;-77
2023/03/31 08:24:41;;;;;;;6.18;2.40;;;;;;;10.35;95.60;99382.50;5004621;28;20088;-77
2023/03/31 08:27:06;;;;;;;5.65;2.08;;;;;;;10.37;95.36;99379.81;5006043;28;20026;-77
2023/03/31 08:29:31;;;;;;;9.27;2.97;;;;;;;10.37;95.78;99370.25;5005207;28;20037;-77
2023/03/31 08:31:56;;;;;;;7.97;2.35;;;;;;;10.40;95.65;99375.34;5007018;28;20485;-76
2023/03/31 08:34:22;;;;;;;5.68;1.85;;;;;;;10.43;95.71;99375.19;5004960;28;20022;-76
2023/03/31 08:36:47;;;;;;;7.93;2.10;;;;;;;10.48;95.36;99367.16;5002411;28;20159;-76
2023/03/31 08:39:13;;;;;;;6.78;1.90;;;;;;;10.53;95.34;99369.53;5002652;28;20029;-77
2023/03/31 08:41:56;;;;;;;7.43;1.90;;;;;;;10.59;95.75;99372.69;5007132;28;20034;-77
2023/03/31 08:44:39;;;;;;;8.20;1.92;;;;;;;10.65;95.69;99366.31;5004700;28;20072;-77
2023/03/31 08:47:11;;;;;;;7.70;2.08;;;;;;;10.70;95.62;99372.16;5003366;28;20814;-77
2023/03/31 08:49:44;;;;;;;8.82;1.73;;;;;;;10.74;94.73;99371.06;5003052;28;20030;-77
2023/03/31 08:52:22;;;;;;;7.35;1.80;;;;;;;10.77;95.26;99363.09;5001860;28;20050;-77
2023/03/31 08:54:55;;;;;;;9.35;1.98;;;;;;;10.80;95.59;99366.47;5003745;28;20032;-77
2023/03/31 08:57:27;;;;;;;9.00;1.80;;;;;;;10.84;95.25;99362.78;5003467;28;20030;-77
2023/03/31 08:59:57;;;;;;;7.97;1.77;;;;;;;10.89;94.57;99368.63;5007384;28;20030;-78
2023/03/31 09:02:28;;;;;;;7.97;2.20;;;;;;;10.92;95.04;99363.25;5001145;28;20034;-77
2023/03/31 09:04:59;;;;;;;11.65;1.95;;;;;;;10.97;94.42;99363.84;5003397;28;20420;-77
2023/03/31 09:07:38;;;;;;;7.03;1.70;;;;;;;11.00;94.78;99362.88;5000127;28;20034;-77
2023/03/31 09:10:12;;;;;;;9.55;1.92;;;;;;;11.06;93.72;99366.00;5000097;28;21275;-77
2023/03/31 09:13:02;;;;;;;9.93;1.90;;;;;;;11.12;93.35;99356.16;5001233;28;20025;-77
2023/03/31 09:15:35;;;;;;;8.30;2.00;;;;;;;11.18;93.36;99350.66;5003634;28;20026;-76
2023/03/31 09:18:24;;;;;;;10.07;2.10;;;;;;;11.24;92.79;99355.53;5005971;28;20033;-77
2023/03/31 09:20:53;;;;;;;8.38;1.90;;;;;;;11.29;91.94;99347.50;5002372;28;20034;-77
2023/03/31 09:23:41;;;;;;;11.35;2.10;;;;;;;11.36;91.44;99354.88;5000886;28;20045;-77
2023/03/31 09:26:21;;;;;;;9.88;1.80;;;;;;;11.43;89.13;99354.56;5001803;28;20036;-78
2023/03/31 09:28:47;;;;;;;9.65;1.92;;;;;;;11.50;89.89;99350.69;5001951;28;20389;-78
2023/03/31 09:31:16;;;;;;;9.93;2.00;;;;;;;11.56;89.72;99342.56;5001413;28;20569;-77
2023/03/31 09:33:45;;;;;;;6.72;1.77;;;;;;;11.63;88.13;99336.09;5002479;28;20026;-77
2023/03/31 09:36:23;;;;;;;8.98;1.60;;;;;;;11.68;88.33;99328.88;5001392;28;20064;-78
2023/03/31 09:38:48;;;;;;;10.63;1.80;;;;;;;11.72;86.09;99333.91;5002736;28;20026;-79
2023/03/31 09:41:15;;;;;;;8.85;1.50;;;;;;;11.74;84.87;99337.28;4999683;28;20076;-79
2023/03/31 09:43:42;;;;;;;11.88;2.05;;;;;;;11.72;84.80;99333.91;5001696;28;20033;-78
2023/03/31 09:46:17;;;;;;;9.63;2.05;;;;;;;11.73;85.00;99333.81;4998115;28;20037;-78
2023/03/31 09:48:53;;;;;;;8.68;1.50;;;;;;;11.75;84.51;99333.75;4998753;28;20033;-78
2023/03/31 09:51:29;;;;;;;10.52;1.77;;;;;;;11.76;83.82;99325.03;5002188;28;20084;-77
2023/03/31 09:54:03;;;;;;;9.75;1.60;;;;;;;11.77;83.24;99335.34;5002260;28;20084;-77
2023/03/31 09:56:55;;;;;;;7.15;1.80;;;;;;;11.82;82.44;99327.25;5001128;28;20029;-77
2023/03/31 09:59:22;;;;;;;6.63;1.40;;;;;;;11.84;81.58;99322.81;4997881;28;20042;-77
2023/03/31 10:01:52;;;;;;;9.32;1.90;;;;;;;11.80;81.12;99327.34;5000739;28;20026;-77
2023/03/31 10:04:23;;;;;;;6.57;1.77;;;;;;;11.85;81.38;99321.88;5001415;28;20040;-76
2023/03/31 10:06:51;;;;;;;7.20;1.65;;;;;;;11.90;80.62;99314.66;4998559;28;20576;-77
2023/03/31 10:09:20;;;;;;;6.20;1.63;;;;;;;11.97;78.98;99322.97;5001105;28;20089;-77
2023/03/31 10:11:55;;;;;;;8.18;1.42;;;;;;;12.05;80.33;99309.53;4981465;28;20030;-76
2023/03/31 10:14:26;;;;;;;6.93;1.80;;;;;;;12.12;79.52;99305.66;5000344;28;20069;-77
2023/03/31 10:16:54;;;;;;;8.60;1.48;;;;;;;12.16;79.74;99307.16;4999524;28;20382;-77
2023/03/31 10:19:27;;;;;;;6.65;1.48;;;;;;;12.25;78.73;99306.66;4999139;28;20959;-76
2023/03/31 10:22:02;;;;;;;8.70;1.60;;;;;;;12.29;78.04;99297.72;4999965;28;20063;-78
2023/03/31 10:24:42;;;;;;;7.25;1.50;;;;;;;12.30;78.27;99299.38;5000518;28;20112;-78
2023/03/31 10:27:22;;;;;;;5.85;1.20;;;;;;;12.33;77.76;99297.53;4999087;28;20034;-77
2023/03/31 10:29:51;;;;;;;7.88;1.58;;;;;;;12.33;78.09;99303.59;4999267;28;20026;-77
2023/03/31 10:32:27;;;;;;;5.82;1.50;;;;;;;12.28;79.10;99293.44;4999645;28;20060;-77
2023/03/31 10:34:54;;;;;;;6.47;1.25;;;;;;;12.28;77.25;99303.88;4999807;28;20026;-78
2023/03/31 10:37:26;;;;;;;7.72;1.45;;;;;;;12.25;76.74;99308.41;5000872;28;20045;-77
2023/03/31 10:39:57;;;;;;;5.63;1.15;;;;;;;12.25;76.23;99296.22;5000263;28;20056;-77
2023/03/31 10:42:24;;;;;;;7.47;1.48;;;;;;;12.25;75.78;99298.81;5001192;28;20092;-78
2023/03/31 10:45:08;;;;;;;4.20;1.27;;;;;;;12.30;76.24;99294.16;4999772;28;20060;-77
2023/03/31 10:47:33;;;;;;;6.15;1.13;;;;;;;12.38;76.13;99290.28;5000351;28;20033;-77
2023/03/31 10:50:03;;;;;;;5.47;1.13;;;;;;;12.45;75.60;99299.44;4999493;28;20036;-77
2023/03/31 10:52:29;;;;;;;6.63;1.40;;;;;;;12.42;74.94;99297.00;4997203;28;20045;-78
2023/03/31 10:54:59;;;;;;;5.80;1.30;;;;;;;12.39;75.48;99292.78;4999379;28;20504;-77
2023/03/31 10:57:55;;;;;;;4.43;1.15;;;;;;;12.38;76.18;99282.44;4999129;28;20049;-77
2023/03/31 11:00:31;;;;;;;5.55;1.08;;;;;;;12.40;75.88;99283.22;4997796;28;20139;-78
2023/03/31 11:03:47;;;;;;;4.45;1.20;;;;;;;12.43;76.65;99273.44;5002685;28;20034;-78
2023/03/31 11:06:25;;;;;;;6.95;1.35;;;;;;;12.51;75.66;99272.97;4983111;28;20074;-78
2023/03/31 11:09:03;;;;;;;8.18;1.40;;;;;;;12.55;75.06;99271.03;4998762;28;20033;-77
2023/03/31 11:12:01;;;;;;;6.53;1.50;;;;;;;12.56;75.37;99270.94;5000925;28;20034;-77
2023/03/31 11:14:42;;;;;;;5.47;1.40;;;;;;;12.59;75.26;99273.38;4998659;28;20057;-77
2023/03/31 11:17:40;;;;;;;6.30;1.30;;;;;;;12.60;74.76;99259.41;5000420;28;20243;-77
2023/03/31 11:20:20;;;;;;;5.60;1.25;;;;;;;12.50;74.92;99263.47;4991020;28;20050;-77
2023/03/31 11:22:56;;;;;;;8.90;1.98;;;;;;;12.40;75.28;99257.94;5005013;28;20034;-77
2023/03/31 11:25:46;;;;;;;6.57;1.30;;;;;;;12.34;75.33;99273.13;5004495;28;20758;-78
2023/03/31 11:28:14;;;;;;;6.50;1.45;;;;;;;12.23;76.05;99266.78;5004872;28;20022;-78
2023/03/31 11:30:58;;;;;;;7.53;1.40;;;;;;;12.17;75.80;99266.31;5004444;28;20465;-78
2023/03/31 11:33:49;;;;;;;7.75;1.30;;;;;;;12.21;77.13;99267.81;5003911;28;20037;-77
2023/03/31 11:36:56;;;;;;;7.53;1.67;;;;;;;12.34;77.49;99258.34;5003774;28;20096;-77
2023/03/31 11:39:36;;;;;;;9.43;1.70;;;;;;;12.37;77.51;99263.38;5004549;28;20029;-78
2023/03/31 11:42:07;;;;;;;7.07;1.50;;;;;;;12.42;77.52;99244.84;5005114;28;20040;-77
2023/03/31 11:44:42;;;;;;;7.10;1.55;;;;;;;12.49;76.72;99233.09;5003990;28;20038;-78
2023/03/31 11:47:14;;;;;;;7.10;1.35;;;;;;;12.53;76.08;99242.44;5005387;28;20022;-77
2023/03/31 11:49:58;;;;;;;8.38;1.38;;;;;;;12.60;76.34;99237.69;5008259;28;20022;-77
2023/03/31 11:52:30;;;;;;;10.77;2.00;;;;;;;12.64;75.34;99239.19;5006657;28;20509;-77
2023/03/31 11:55:01;;;;;;;7.13;1.33;;;;;;;12.62;75.42;99235.00;5005568;28;20025;-78